• Join FlightAware (Why Join?)
  • Login
  • US Flag 
06:09AM EDT


 

Airport Tracker/Info


-or-


 

Live Flight TrackerFlight Track Log ✈ CPT7773 ✈ 26-Jun-2013 ✈ KCOD - KCPR

Flight Track Log - Related Links

Times and Time Zones

All times are in EDT time to prevent confusion due to time zone crossing. See the CPT7773 flight status page for this flight to view local times or setup timezone preferences in your user account.

Time Position Orientation Groundspeed Altitude Reporting Facility
EDT Latitude Longitude Course Direction KTS MPH feet Rate Location/Type
08:01PM 44.3791 -108.7094 120° Southeast  Level FlightAware Approximate
08:02PM 44.3552 -108.6522 120° Southeast  Level FlightAware Approximate
08:03PM 44.3456 -108.5790 144° Southeast  Level FlightAware Approximate
08:04PM 44.3097 -108.5381 129° Southeast  Level FlightAware Approximate
08:05PM 44.2803 -108.4876 129° Southeast  Level FlightAware Approximate
08:06PM 44.2509 -108.4371 129° Southeast  Level FlightAware Approximate
08:07PM 44.2215 -108.3867 129° Southeast  Level FlightAware Approximate
08:08PM 44.1913 -108.3373 134° Southeast  Level FlightAware Approximate
08:09PM 44.1589 -108.2906 134° Southeast  Level FlightAware Approximate
08:10PM 44.1266 -108.2439 134° Southeast  Level FlightAware Approximate
08:11PM 44.0942 -108.1973 134° Southeast  Level FlightAware Approximate
08:12PM 44.0618 -108.1507 134° Southeast  Level FlightAware Approximate
08:13PM 44.0294 -108.1041 134° Southeast  Level FlightAware Approximate
08:14PM 43.9969 -108.0576 134° Southeast  Level FlightAware Approximate
08:15PM 43.9645 -108.0111 134° Southeast  Level FlightAware Approximate
08:16PM 43.9320 -107.9647 132° Southeast  Level FlightAware Approximate
08:17PM 43.9009 -107.9166 132° Southeast  Level FlightAware Approximate
08:18PM 43.8697 -107.8686 132° Southeast  Level FlightAware Approximate
08:19PM 43.8385 -107.8206 132° Southeast  Level FlightAware Approximate
08:20PM 43.8073 -107.7727 132° Southeast  Level FlightAware Approximate
08:21PM 43.7760 -107.7248 132° Southeast  Level FlightAware Approximate
08:22PM 43.7447 -107.6770 132° Southeast  Level FlightAware Approximate
08:23PM 43.7135 -107.6292 132° Southeast  Level FlightAware Approximate
08:23PM 43.5983 -107.4650 134° Southeast 173 199 12,000  Level Denver Center
08:24PM 43.6821 -107.5816 134° Southeast  Level FlightAware Approximate
08:24PM 43.5678 -107.4197 133° Southeast 173 199 12,000  Level Denver Center
08:25PM 43.6499 -107.5350 134° Southeast  Level FlightAware Approximate
08:25PM 43.4167 -107.2522 141° Southeast 180 207 12,000  Level Denver Center
08:26PM 43.6179 -107.4888 134° Southeast  Level FlightAware Approximate
08:26PM 43.3858 -107.2031 131° Southeast 177 204 12,100  Level Denver Center
08:27PM 43.5858 -107.4426 134° Southeast  Level FlightAware Approximate
08:27PM 43.3514 -107.1461 130° Southeast 176 203 12,100  Level Denver Center
08:28PM 43.5538 -107.3964 134° Southeast  Level FlightAware Approximate
08:28PM 43.3197 -107.0986 132° Southeast 175 201 12,000  Level Denver Center
08:29PM 43.2881 -107.0525 133° Southeast 174 200 12,100  Climbing Denver Center
08:30PM 43.2536 -106.9981 131° Southeast 172 198 12,100  Level Denver Center
08:31PM 43.2242 -106.9519 131° Southeast 170 196 12,100 -240 Level Denver Center
08:32PM 43.1889 -106.8969 131° Southeast 170 196 11,700 -420 Descending Denver Center
08:33PM 43.1572 -106.8478 131° Southeast 175 201 11,300 -540 Descending Denver Center
08:34PM 43.1172 -106.7864 132° Southeast 185 213 10,600 -780 Descending Denver Center
08:35PM 43.0817 -106.7322 132° Southeast 193 222 9,800 -840 Descending Denver Center
08:36PM 43.0397 -106.6700 133° Southeast 198 228 8,900 -720 Descending Denver Center
08:38PM 43.0056 -106.6169 131° Southeast 197 227 8,300 -660 Descending Denver Center
08:39PM 42.9736 -106.5489 123° Southeast 194 223 7,600 -660 Descending Denver Center
08:40PM 42.9439 -106.4811 121° Southeast 195 224 7,000 -600 Descending Denver Center
08:42PM 42.9080 -106.4644 124° Southeast  Level Estimated
08:49PM 42.9080 -106.4644 124° Southeast  Level Estimated
08:50PM 42.9080 -106.4644 124° Southeast  Level Estimated